createdAt,value
2019-01-09T00:03:31.836Z,4.23
2019-01-09T00:08:33.743Z,4.26
2019-01-09T00:13:35.277Z,4.34
2019-01-09T00:18:36.861Z,4.35
2019-01-09T00:23:38.962Z,4.34
2019-01-09T00:28:40.550Z,4.47
2019-01-09T00:33:42.064Z,4.63
2019-01-09T00:38:43.608Z,4.72
2019-01-09T00:43:45.170Z,4.69
2019-01-09T00:48:46.676Z,4.54
2019-01-09T00:53:48.240Z,4.51
2019-01-09T00:58:49.779Z,4.54
2019-01-09T01:04:19.348Z,4.22
2019-01-09T01:10:14.820Z,3.86
2019-01-09T01:16:12.269Z,3.67
2019-01-09T01:21:33.941Z,3.51
2019-01-09T01:26:59.171Z,3.34
2019-01-09T01:32:27.976Z,3.32
2019-01-09T01:38:11.249Z,3.28
2019-01-09T01:43:46.934Z,3.23
2019-01-09T01:49:36.120Z,3.20
2019-01-09T01:55:06.542Z,3.22
2019-01-09T02:00:57.522Z,3.27
2019-01-09T02:06:53.053Z,3.33
2019-01-09T02:12:33.345Z,3.29
2019-01-09T02:17:59.409Z,3.25
2019-01-09T02:23:33.544Z,3.21
2019-01-09T02:29:17.090Z,3.13
2019-01-09T02:34:20.357Z,3.16
2019-01-09T02:39:22.085Z,3.18
2019-01-09T02:44:32.111Z,3.21
2019-01-09T02:49:27.529Z,3.21
2019-01-09T02:54:29.398Z,3.31
2019-01-09T02:59:31.039Z,3.38
2019-01-09T03:04:32.969Z,3.40
2019-01-09T03:09:34.886Z,3.46
2019-01-09T03:14:36.463Z,3.55
2019-01-09T03:19:38.458Z,3.60
2019-01-09T03:24:40.033Z,3.48
2019-01-09T03:29:41.626Z,3.32
2019-01-09T03:34:43.835Z,3.19
2019-01-09T03:39:45.505Z,3.10
2019-01-09T03:44:48.852Z,3.01
2019-01-09T03:49:50.741Z,2.98
2019-01-09T03:54:53.397Z,2.93
2019-01-09T03:59:54.944Z,2.89
2019-01-09T04:04:56.574Z,2.87
2019-01-09T04:09:58.137Z,2.82
2019-01-09T04:14:59.703Z,2.80
2019-01-09T04:20:01.655Z,2.77
2019-01-09T04:25:03.173Z,2.77
2019-01-09T04:30:05.245Z,2.72
2019-01-09T04:35:06.834Z,2.71
2019-01-09T04:40:08.471Z,2.67
2019-01-09T04:45:09.986Z,2.71
2019-01-09T04:50:11.923Z,2.84
2019-01-09T04:55:13.524Z,2.98
2019-01-09T05:00:15.096Z,2.92
2019-01-09T05:05:16.601Z,2.87
2019-01-09T05:10:18.224Z,2.90
2019-01-09T05:15:19.743Z,2.81
2019-01-09T05:20:21.324Z,2.74
2019-01-09T05:25:22.887Z,2.68
2019-01-09T05:30:24.416Z,2.68
2019-01-09T05:35:25.949Z,2.70
2019-01-09T05:40:27.516Z,2.66
2019-01-09T05:45:29.138Z,2.65
2019-01-09T05:50:30.773Z,2.69
2019-01-09T05:55:32.386Z,2.85
2019-01-09T06:00:34.304Z,2.85
2019-01-09T06:05:35.928Z,2.86
2019-01-09T06:10:37.428Z,2.86
2019-01-09T06:15:38.979Z,2.89
2019-01-09T06:20:40.549Z,2.87
2019-01-09T06:25:42.110Z,2.83
2019-01-09T06:30:43.640Z,2.76
2019-01-09T06:35:45.280Z,2.75
2019-01-09T06:40:46.832Z,2.83
2019-01-09T06:45:48.389Z,3.01
2019-01-09T06:50:49.931Z,3.07
2019-01-09T06:55:51.588Z,3.03
2019-01-09T07:00:53.157Z,2.87
2019-01-09T07:05:54.709Z,2.88
2019-01-09T07:10:56.488Z,2.97
2019-01-09T07:15:58.459Z,2.98
2019-01-09T07:21:00.019Z,3.01
2019-01-09T07:26:01.682Z,3.03
2019-01-09T07:31:03.599Z,2.92
2019-01-09T07:36:05.156Z,2.83
2019-01-09T07:41:06.709Z,2.85
2019-01-09T07:46:08.405Z,2.89
2019-01-09T07:51:10.709Z,2.90
2019-01-09T07:56:12.267Z,3.00
2019-01-09T08:01:13.908Z,3.01
2019-01-09T08:06:17.270Z,2.89
2019-01-09T08:11:18.823Z,2.87
2019-01-09T08:16:20.359Z,2.87
2019-01-09T08:21:22.370Z,2.84
2019-01-09T08:26:23.960Z,2.89
2019-01-09T08:31:28.463Z,2.84
2019-01-09T08:36:30.485Z,2.88
2019-01-09T08:41:32.530Z,2.91
2019-01-09T08:46:34.057Z,2.96
2019-01-09T08:51:36.511Z,3.00
2019-01-09T08:56:38.074Z,3.00
2019-01-09T09:01:39.655Z,3.07
2019-01-09T09:06:41.280Z,3.14
2019-01-09T09:11:43.279Z,3.24
2019-01-09T09:16:45.287Z,3.32
2019-01-09T09:21:46.889Z,3.42
2019-01-09T09:26:48.577Z,3.53
2019-01-09T09:31:50.230Z,3.66
2019-01-09T09:36:52.178Z,3.84
2019-01-09T09:41:53.852Z,3.99
2019-01-09T09:46:55.469Z,4.11
2019-01-09T09:51:59.412Z,4.30
2019-01-09T09:57:01.000Z,4.42
2019-01-09T10:02:04.838Z,4.56
2019-01-09T10:07:06.373Z,4.70
2019-01-09T10:12:07.949Z,4.84
2019-01-09T10:17:09.479Z,4.97
2019-01-09T10:22:13.769Z,5.07
2019-01-09T10:27:15.293Z,5.16
2019-01-09T10:32:18.142Z,5.23
2019-01-09T10:37:19.733Z,5.23
2019-01-09T10:42:21.342Z,5.39
2019-01-09T10:47:23.084Z,5.48
2019-01-09T10:52:24.678Z,5.54
2019-01-09T10:57:26.317Z,5.60
2019-01-09T11:02:28.264Z,5.64
2019-01-09T11:07:29.913Z,5.61
2019-01-09T11:12:31.859Z,5.63
2019-01-09T11:17:33.551Z,5.78
2019-01-09T11:22:35.318Z,5.81
2019-01-09T11:27:36.854Z,5.86
2019-01-09T11:32:38.446Z,5.89
2019-01-09T11:37:40.464Z,6.03
2019-01-09T11:42:44.283Z,6.06
2019-01-09T11:47:47.708Z,5.96
2019-01-09T11:52:51.121Z,5.94
2019-01-09T11:57:52.642Z,6.13
2019-01-09T12:02:54.849Z,6.17
2019-01-09T12:07:56.379Z,6.14
2019-01-09T12:12:57.989Z,6.04
2019-01-09T12:17:59.593Z,6.03
2019-01-09T12:23:01.239Z,6.14
2019-01-09T12:28:02.807Z,6.20
2019-01-09T12:33:04.445Z,6.25
2019-01-09T12:38:06.379Z,6.35
2019-01-09T12:43:08.087Z,6.46
2019-01-09T12:48:09.720Z,6.50
2019-01-09T12:53:11.287Z,6.54
2019-01-09T12:58:13.304Z,6.63
2019-01-09T13:03:14.881Z,6.74
2019-01-09T13:08:17.486Z,6.88
2019-01-09T13:13:19.063Z,6.98
2019-01-09T13:18:20.623Z,6.86
2019-01-09T13:23:22.699Z,6.74
2019-01-09T13:28:24.235Z,6.88
2019-01-09T13:33:25.831Z,7.06
2019-01-09T13:38:27.425Z,7.05
2019-01-09T13:43:29.076Z,6.81
2019-01-09T13:48:31.652Z,6.59
2019-01-09T13:53:33.315Z,6.55
2019-01-09T13:58:34.864Z,6.64
2019-01-09T14:03:36.854Z,6.74
2019-01-09T14:08:38.845Z,6.87
2019-01-09T14:13:40.468Z,6.96
2019-01-09T14:18:42.072Z,6.79
2019-01-09T14:23:43.860Z,6.53
2019-01-09T14:28:45.445Z,6.48
2019-01-09T14:33:47.048Z,6.57
2019-01-09T14:38:48.565Z,6.47
2019-01-09T14:43:50.230Z,6.34
2019-01-09T14:48:51.978Z,6.29
2019-01-09T14:53:53.954Z,6.33
2019-01-09T14:58:55.596Z,6.35
2019-01-09T15:03:57.239Z,6.29
2019-01-09T15:08:58.808Z,6.23
2019-01-09T15:14:00.408Z,6.15
2019-01-09T15:19:02.094Z,5.99
2019-01-09T15:24:08.585Z,5.83
2019-01-09T15:29:07.700Z,5.68
2019-01-09T15:34:09.412Z,5.56
2019-01-09T15:39:11.041Z,5.43
2019-01-09T15:44:12.692Z,5.36
2019-01-09T15:49:14.244Z,5.23
2019-01-09T15:54:15.937Z,5.10
2019-01-09T15:59:17.495Z,5.02
2019-01-09T16:04:19.111Z,4.89
2019-01-09T16:09:20.642Z,4.80
2019-01-09T16:14:22.270Z,4.73
2019-01-09T16:19:23.887Z,4.72
2019-01-09T16:24:25.622Z,4.63
2019-01-09T16:29:27.199Z,4.59
2019-01-09T16:34:28.738Z,4.53
2019-01-09T16:39:31.161Z,4.46
2019-01-09T16:44:33.258Z,4.38
2019-01-09T16:49:35.153Z,4.32
2019-01-09T16:54:36.691Z,4.20
2019-01-09T16:59:38.261Z,4.13
2019-01-09T17:04:39.921Z,4.08
2019-01-09T17:09:41.892Z,4.05
2019-01-09T17:14:44.584Z,4.00
2019-01-09T17:19:46.149Z,3.94
2019-01-09T17:24:47.710Z,3.84
2019-01-09T17:29:49.296Z,3.80
2019-01-09T17:34:50.875Z,3.78
2019-01-09T17:39:52.479Z,3.82
2019-01-09T17:44:54.104Z,3.73
2019-01-09T17:49:55.906Z,3.67
2019-01-09T17:54:57.465Z,3.61
2019-01-09T18:00:11.640Z,3.59
2019-01-09T18:05:14.487Z,3.55
2019-01-09T18:10:18.079Z,3.54
2019-01-09T18:15:20.629Z,3.51
2019-01-09T18:20:22.410Z,3.46
2019-01-09T18:25:25.666Z,3.42
2019-01-09T18:30:42.808Z,3.42
2019-01-09T18:36:41.248Z,3.39
2019-01-09T18:42:03.867Z,3.37
2019-01-09T18:47:37.833Z,3.35
2019-01-09T18:52:48.303Z,3.28
2019-01-09T18:57:49.834Z,3.17
2019-01-09T19:02:51.806Z,3.06
2019-01-09T19:07:53.344Z,3.05
2019-01-09T19:12:54.872Z,3.06
2019-01-09T19:17:56.511Z,3.04
2019-01-09T19:22:59.085Z,3.04
2019-01-09T19:28:00.907Z,3.00
2019-01-09T19:33:02.510Z,2.98
2019-01-09T19:38:04.031Z,2.98
2019-01-09T19:43:05.967Z,2.94
2019-01-09T19:48:07.957Z,2.92
2019-01-09T19:53:09.548Z,2.91
2019-01-09T19:58:11.234Z,2.89
2019-01-09T20:03:13.168Z,2.87
2019-01-09T20:08:14.786Z,2.82
2019-01-09T20:13:16.435Z,2.77
2019-01-09T20:18:18.145Z,2.70
2019-01-09T20:23:20.038Z,2.63
2019-01-09T20:28:21.624Z,2.61
2019-01-09T20:33:23.366Z,2.61
2019-01-09T20:38:24.895Z,2.62
2019-01-09T20:43:26.605Z,2.60
2019-01-09T20:48:28.267Z,2.56
2019-01-09T20:53:29.827Z,2.56
2019-01-09T20:58:31.396Z,2.56
2019-01-09T21:03:33.061Z,2.51
2019-01-09T21:08:34.672Z,2.51
2019-01-09T21:13:36.651Z,2.48
2019-01-09T21:18:38.168Z,2.43
2019-01-09T21:23:39.817Z,2.38
2019-01-09T21:28:45.778Z,2.33
2019-01-09T21:33:47.371Z,2.34
2019-01-09T21:38:50.025Z,2.34
2019-01-09T21:43:51.578Z,2.27
2019-01-09T21:48:53.270Z,2.21
2019-01-09T21:53:55.661Z,2.17
2019-01-09T21:58:57.190Z,2.18
2019-01-09T22:03:58.735Z,2.21
2019-01-09T22:09:00.348Z,2.16
2019-01-09T22:14:01.921Z,2.16
2019-01-09T22:19:11.911Z,2.11
2019-01-09T22:24:12.952Z,2.08
2019-01-09T22:29:14.568Z,2.08
2019-01-09T22:34:16.299Z,2.07
2019-01-09T22:39:18.032Z,2.07
2019-01-09T22:44:19.595Z,2.04
2019-01-09T22:49:21.184Z,1.97
2019-01-09T22:54:23.254Z,1.94
2019-01-09T22:59:25.241Z,1.94
2019-01-09T23:04:26.756Z,1.94
2019-01-09T23:09:28.336Z,1.90
2019-01-09T23:14:30.273Z,1.91
2019-01-09T23:19:32.480Z,1.84
2019-01-09T23:24:34.039Z,1.76
2019-01-09T23:29:35.674Z,1.70
2019-01-09T23:34:37.529Z,1.61
2019-01-09T23:39:39.364Z,1.53
2019-01-09T23:44:40.988Z,1.48
2019-01-09T23:49:42.494Z,1.41
2019-01-09T23:54:44.047Z,1.37
2019-01-09T23:59:45.585Z,1.33
